Corpus Christi, TX

19:33 CST le 19 décembre 2014 (GMT -0600)
Corpus Christi International | Change Station
CLOSE
Current Station
Aéroport
Location: Corpus Christi,
Altitude: 43 ft
Stations météo à proximité

Alt. 43 ft 27.77 °N, 97.51 °W | Updated 42 minutes ago

Overcast
Couvert
61 ° F
Paraît 61 ° F
N
10
Vent Variable Vent de Nord

Aujourd'hui
Haut(e) -- | Bas -- ° F
--% Risque de précip.
Hier
Haut(e) -- | Bas -- ° F
Precip. -- pouce
7:15 AM 5:38 PM
Lune descendante, 5% visible
Pression 30.06 pouce
Visibilité 10.0 Miles terrestres
Nuages Peu 1400 ft
Nuages épars 1900 ft
Couvert 2300 ft
Point de rosée 56 ° F
Humidité 83%
Précipitations 0.03 pouce
Profondeur de la couche neigeuse Non disponible.
UV 0 sur 12
Pollen 4.40 sur 12
Qualité de l'air Non disponible.
Flu Activity Non disponible.
METAR KCRP 200051Z 36009KT 10SM FEW014 SCT019 OVC023 16/13 A3006 RMK AO2 SLP177 T01610133 $

More Conditions Fewer Conditions

Pression 30.06 pouce
Visibilité 10.0 Miles terrestres
Nuages Peu 1400 ft
Nuages épars 1900 ft
Couvert 2300 ft
Point de rosée 56 ° F
Humidité 83%
Précipitations 0.03 pouce
Profondeur de la couche neigeuse Non disponible.
UV 0 sur 12
Pollen 4.40 sur 12
Qualité de l'air Non disponible.
Flu Activity Non disponible.
METAR KCRP 200051Z 36009KT 10SM FEW014 SCT019 OVC023 16/13 A3006 RMK AO2 SLP177 T01610133 $

More Conditions Fewer Conditions

10-Day Weather Forecast

Almanac

Astronomie

Dec. 19, 2014 Lever Coucher
Temps réel
Crépuscule civil
Crépuscule nautique
Crépuscule astronomique
Lune
Durée de lumière visible
Longueur du jour
Tomorrow will be .
, % of the Moon is Illuminated

Extrêmes aujourd'hui

State Highs State Lows

Community

WunderPhotos

Upload Photos

1,779,099 Photos téléchargées !

WunderBlogs® & News

Nearby

Qualité de l'air

  Qualité de l'air Indice de la qualité de l'air Polluant
Not available.

Épaisseur de neige

Station Depth Altitude

Activité sismique

Ville Distance Mag. Time & Date
Minimum magnitude displayed is 2.5.

Températures des eaux côtières

Lieu Température

Stations météo à proximité